<?xml version="1.0" encoding="UTF-8" standalone="no" ?>
<gpx xmlns="http://www.topografix.com/GPX/1/1" xmlns:xsi="http://www.w3.org/2001/XMLSchema-instance" xsi:schemaLocation="http://www.topografix.com/GPX/1/1 http://www.topografix.com/GPX/1/1/gpx.xsd" version="1.1" creator="VisuGPX - https://www.visugpx.com">
  <metadata>
    <name>CLAIREFONTAINE 2</name>
  </metadata>
  <trk>
    <name><![CDATA[CLAIREFONTAINE 2]]></name>
    <trkseg>
      <trkpt lat="48.61022" lon="1.91177">
        <ele>127</ele>
        <time>2020-07-21T12:31:14Z</time>
      </trkpt>
      <trkpt lat="48.61015" lon="1.91149">
        <ele>127</ele>
        <time>2020-07-21T12:32:01Z</time>
      </trkpt>
      <trkpt lat="48.61006" lon="1.91165">
        <ele>128</ele>
        <time>2020-07-21T12:32:14Z</time>
      </trkpt>
      <trkpt lat="48.60998" lon="1.91173">
        <ele>128</ele>
        <time>2020-07-21T12:32:21Z</time>
      </trkpt>
      <trkpt lat="48.60994" lon="1.91182">
        <ele>129</ele>
        <time>2020-07-21T12:32:26Z</time>
      </trkpt>
      <trkpt lat="48.60987" lon="1.91206">
        <ele>129</ele>
        <time>2020-07-21T12:32:42Z</time>
      </trkpt>
      <trkpt lat="48.60976" lon="1.91218">
        <ele>129</ele>
        <time>2020-07-21T12:32:54Z</time>
      </trkpt>
      <trkpt lat="48.6096" lon="1.91234">
        <ele>129</ele>
        <time>2020-07-21T12:33:10Z</time>
      </trkpt>
      <trkpt lat="48.60943" lon="1.91262">
        <ele>129</ele>
        <time>2020-07-21T12:33:26Z</time>
      </trkpt>
      <trkpt lat="48.60938" lon="1.91302">
        <ele>129</ele>
        <time>2020-07-21T12:33:40Z</time>
      </trkpt>
      <trkpt lat="48.60927" lon="1.91352">
        <ele>129</ele>
        <time>2020-07-21T12:33:58Z</time>
      </trkpt>
      <trkpt lat="48.60923" lon="1.91393">
        <ele>129</ele>
        <time>2020-07-21T12:34:14Z</time>
      </trkpt>
      <trkpt lat="48.60922" lon="1.91398">
        <ele>129</ele>
        <time>2020-07-21T12:34:16Z</time>
      </trkpt>
      <trkpt lat="48.60923" lon="1.914">
        <ele>129</ele>
        <time>2020-07-21T12:34:17Z</time>
      </trkpt>
      <trkpt lat="48.60923" lon="1.91403">
        <ele>129</ele>
        <time>2020-07-21T12:34:18Z</time>
      </trkpt>
      <trkpt lat="48.60923" lon="1.91406">
        <ele>129</ele>
        <time>2020-07-21T12:34:19Z</time>
      </trkpt>
      <trkpt lat="48.60924" lon="1.91409">
        <ele>129</ele>
        <time>2020-07-21T12:34:20Z</time>
      </trkpt>
      <trkpt lat="48.60924" lon="1.91411">
        <ele>129</ele>
        <time>2020-07-21T12:34:21Z</time>
      </trkpt>
      <trkpt lat="48.60925" lon="1.91414">
        <ele>129</ele>
        <time>2020-07-21T12:34:22Z</time>
      </trkpt>
      <trkpt lat="48.60925" lon="1.91416">
        <ele>129</ele>
        <time>2020-07-21T12:34:23Z</time>
      </trkpt>
      <trkpt lat="48.60926" lon="1.91419">
        <ele>129</ele>
        <time>2020-07-21T12:34:24Z</time>
      </trkpt>
      <trkpt lat="48.60926" lon="1.91421">
        <ele>129</ele>
        <time>2020-07-21T12:34:25Z</time>
      </trkpt>
      <trkpt lat="48.60928" lon="1.91453">
        <ele>129</ele>
        <time>2020-07-21T12:34:38Z</time>
      </trkpt>
      <trkpt lat="48.60923" lon="1.91482">
        <ele>128</ele>
        <time>2020-07-21T12:34:52Z</time>
      </trkpt>
      <trkpt lat="48.60913" lon="1.91502">
        <ele>128</ele>
        <time>2020-07-21T12:35:05Z</time>
      </trkpt>
      <trkpt lat="48.60912" lon="1.91505">
        <ele>128</ele>
        <time>2020-07-21T12:35:08Z</time>
      </trkpt>
      <trkpt lat="48.60906" lon="1.91503">
        <ele>128</ele>
        <time>2020-07-21T12:35:14Z</time>
      </trkpt>
      <trkpt lat="48.60904" lon="1.91504">
        <ele>128</ele>
        <time>2020-07-21T12:35:15Z</time>
      </trkpt>
      <trkpt lat="48.60903" lon="1.91504">
        <ele>128</ele>
        <time>2020-07-21T12:35:16Z</time>
      </trkpt>
      <trkpt lat="48.60886" lon="1.91521">
        <ele>128</ele>
        <time>2020-07-21T12:35:31Z</time>
      </trkpt>
      <trkpt lat="48.60869" lon="1.91549">
        <ele>128</ele>
        <time>2020-07-21T12:35:47Z</time>
      </trkpt>
      <trkpt lat="48.60855" lon="1.91574">
        <ele>128</ele>
        <time>2020-07-21T12:36:02Z</time>
      </trkpt>
      <trkpt lat="48.60841" lon="1.91599">
        <ele>127</ele>
        <time>2020-07-21T12:36:15Z</time>
      </trkpt>
      <trkpt lat="48.60826" lon="1.91629">
        <ele>127</ele>
        <time>2020-07-21T12:36:30Z</time>
      </trkpt>
      <trkpt lat="48.60812" lon="1.91659">
        <ele>127</ele>
        <time>2020-07-21T12:36:48Z</time>
      </trkpt>
      <trkpt lat="48.60809" lon="1.91668">
        <ele>127</ele>
        <time>2020-07-21T12:36:53Z</time>
      </trkpt>
      <trkpt lat="48.60808" lon="1.91669">
        <ele>127</ele>
        <time>2020-07-21T12:36:54Z</time>
      </trkpt>
      <trkpt lat="48.60807" lon="1.9167">
        <ele>127</ele>
        <time>2020-07-21T12:36:55Z</time>
      </trkpt>
      <trkpt lat="48.60806" lon="1.91671">
        <ele>127</ele>
        <time>2020-07-21T12:36:56Z</time>
      </trkpt>
      <trkpt lat="48.60804" lon="1.91672">
        <ele>127</ele>
        <time>2020-07-21T12:36:57Z</time>
      </trkpt>
      <trkpt lat="48.60803" lon="1.91673">
        <ele>127</ele>
        <time>2020-07-21T12:36:58Z</time>
      </trkpt>
      <trkpt lat="48.6079" lon="1.91689">
        <ele>127</ele>
        <time>2020-07-21T12:37:10Z</time>
      </trkpt>
      <trkpt lat="48.60775" lon="1.91717">
        <ele>127</ele>
        <time>2020-07-21T12:37:25Z</time>
      </trkpt>
      <trkpt lat="48.60759" lon="1.91741">
        <ele>127</ele>
        <time>2020-07-21T12:37:38Z</time>
      </trkpt>
      <trkpt lat="48.60754" lon="1.91748">
        <ele>127</ele>
        <time>2020-07-21T12:37:44Z</time>
      </trkpt>
      <trkpt lat="48.6074" lon="1.91763">
        <ele>127</ele>
        <time>2020-07-21T12:37:58Z</time>
      </trkpt>
      <trkpt lat="48.60737" lon="1.91762">
        <ele>128</ele>
        <time>2020-07-21T12:38:01Z</time>
      </trkpt>
      <trkpt lat="48.60716" lon="1.91776">
        <ele>128</ele>
        <time>2020-07-21T12:38:13Z</time>
      </trkpt>
      <trkpt lat="48.60705" lon="1.9177">
        <ele>128</ele>
        <time>2020-07-21T12:38:25Z</time>
      </trkpt>
      <trkpt lat="48.6069" lon="1.91761">
        <ele>128</ele>
        <time>2020-07-21T12:38:38Z</time>
      </trkpt>
      <trkpt lat="48.60677" lon="1.91756">
        <ele>129</ele>
        <time>2020-07-21T12:38:50Z</time>
      </trkpt>
      <trkpt lat="48.60649" lon="1.91749">
        <ele>129</ele>
        <time>2020-07-21T12:39:05Z</time>
      </trkpt>
      <trkpt lat="48.60639" lon="1.91746">
        <ele>129</ele>
        <time>2020-07-21T12:39:09Z</time>
      </trkpt>
      <trkpt lat="48.6063" lon="1.9175">
        <ele>129</ele>
        <time>2020-07-21T12:39:20Z</time>
      </trkpt>
      <trkpt lat="48.60631" lon="1.91754">
        <ele>129</ele>
        <time>2020-07-21T12:39:23Z</time>
      </trkpt>
      <trkpt lat="48.60635" lon="1.9176">
        <ele>129</ele>
        <time>2020-07-21T12:39:29Z</time>
      </trkpt>
      <trkpt lat="48.6064" lon="1.91767">
        <ele>129</ele>
        <time>2020-07-21T12:39:35Z</time>
      </trkpt>
      <trkpt lat="48.60642" lon="1.91772">
        <ele>129</ele>
        <time>2020-07-21T12:39:38Z</time>
      </trkpt>
      <trkpt lat="48.60656" lon="1.91784">
        <ele>129</ele>
        <time>2020-07-21T12:39:49Z</time>
      </trkpt>
      <trkpt lat="48.60673" lon="1.91794">
        <ele>128</ele>
        <time>2020-07-21T12:40:00Z</time>
      </trkpt>
      <trkpt lat="48.60689" lon="1.91809">
        <ele>128</ele>
        <time>2020-07-21T12:40:12Z</time>
      </trkpt>
      <trkpt lat="48.60705" lon="1.91823">
        <ele>128</ele>
        <time>2020-07-21T12:40:24Z</time>
      </trkpt>
      <trkpt lat="48.60708" lon="1.91824">
        <ele>128</ele>
        <time>2020-07-21T12:40:26Z</time>
      </trkpt>
      <trkpt lat="48.60716" lon="1.91829">
        <ele>128</ele>
        <time>2020-07-21T12:40:31Z</time>
      </trkpt>
      <trkpt lat="48.6072" lon="1.91834">
        <ele>128</ele>
        <time>2020-07-21T12:40:35Z</time>
      </trkpt>
      <trkpt lat="48.60738" lon="1.91858">
        <ele>128</ele>
        <time>2020-07-21T12:40:49Z</time>
      </trkpt>
      <trkpt lat="48.60755" lon="1.91873">
        <ele>129</ele>
        <time>2020-07-21T12:41:03Z</time>
      </trkpt>
      <trkpt lat="48.60759" lon="1.9188">
        <ele>129</ele>
        <time>2020-07-21T12:41:09Z</time>
      </trkpt>
      <trkpt lat="48.60778" lon="1.91895">
        <ele>129</ele>
        <time>2020-07-21T12:41:22Z</time>
      </trkpt>
      <trkpt lat="48.60779" lon="1.91896">
        <ele>129</ele>
        <time>2020-07-21T12:41:23Z</time>
      </trkpt>
      <trkpt lat="48.60786" lon="1.91902">
        <ele>129</ele>
        <time>2020-07-21T12:41:29Z</time>
      </trkpt>
      <trkpt lat="48.60793" lon="1.91909">
        <ele>129</ele>
        <time>2020-07-21T12:41:34Z</time>
      </trkpt>
      <trkpt lat="48.60798" lon="1.91912">
        <ele>129</ele>
        <time>2020-07-21T12:41:38Z</time>
      </trkpt>
      <trkpt lat="48.60821" lon="1.91901">
        <ele>130</ele>
        <time>2020-07-21T12:41:51Z</time>
      </trkpt>
      <trkpt lat="48.6084" lon="1.9189">
        <ele>131</ele>
        <time>2020-07-21T12:42:05Z</time>
      </trkpt>
      <trkpt lat="48.60857" lon="1.91874">
        <ele>131</ele>
        <time>2020-07-21T12:42:20Z</time>
      </trkpt>
      <trkpt lat="48.60879" lon="1.91853">
        <ele>130</ele>
        <time>2020-07-21T12:42:38Z</time>
      </trkpt>
      <trkpt lat="48.60886" lon="1.91845">
        <ele>130</ele>
        <time>2020-07-21T12:42:44Z</time>
      </trkpt>
      <trkpt lat="48.60888" lon="1.91845">
        <ele>130</ele>
        <time>2020-07-21T12:42:45Z</time>
      </trkpt>
      <trkpt lat="48.60889" lon="1.91843">
        <ele>130</ele>
        <time>2020-07-21T12:42:46Z</time>
      </trkpt>
      <trkpt lat="48.60891" lon="1.91842">
        <ele>130</ele>
        <time>2020-07-21T12:42:47Z</time>
      </trkpt>
      <trkpt lat="48.60896" lon="1.91842">
        <ele>130</ele>
        <time>2020-07-21T12:42:50Z</time>
      </trkpt>
      <trkpt lat="48.60897" lon="1.91843">
        <ele>130</ele>
        <time>2020-07-21T12:42:51Z</time>
      </trkpt>
      <trkpt lat="48.60899" lon="1.91844">
        <ele>131</ele>
        <time>2020-07-21T12:42:52Z</time>
      </trkpt>
      <trkpt lat="48.60914" lon="1.91866">
        <ele>131</ele>
        <time>2020-07-21T12:43:07Z</time>
      </trkpt>
      <trkpt lat="48.60926" lon="1.91891">
        <ele>134</ele>
        <time>2020-07-21T12:43:20Z</time>
      </trkpt>
      <trkpt lat="48.60929" lon="1.91893">
        <ele>135</ele>
        <time>2020-07-21T12:43:23Z</time>
      </trkpt>
      <trkpt lat="48.60944" lon="1.91902">
        <ele>135</ele>
        <time>2020-07-21T12:43:33Z</time>
      </trkpt>
      <trkpt lat="48.60962" lon="1.91912">
        <ele>135</ele>
        <time>2020-07-21T12:43:45Z</time>
      </trkpt>
      <trkpt lat="48.60966" lon="1.91917">
        <ele>137</ele>
        <time>2020-07-21T12:43:50Z</time>
      </trkpt>
      <trkpt lat="48.60974" lon="1.91924">
        <ele>137</ele>
        <time>2020-07-21T12:43:57Z</time>
      </trkpt>
      <trkpt lat="48.60985" lon="1.91934">
        <ele>137</ele>
        <time>2020-07-21T12:44:07Z</time>
      </trkpt>
      <trkpt lat="48.61002" lon="1.91951">
        <ele>140</ele>
        <time>2020-07-21T12:44:21Z</time>
      </trkpt>
      <trkpt lat="48.61005" lon="1.91957">
        <ele>140</ele>
        <time>2020-07-21T12:44:26Z</time>
      </trkpt>
      <trkpt lat="48.61006" lon="1.91959">
        <ele>140</ele>
        <time>2020-07-21T12:44:27Z</time>
      </trkpt>
      <trkpt lat="48.61011" lon="1.91965">
        <ele>140</ele>
        <time>2020-07-21T12:44:32Z</time>
      </trkpt>
      <trkpt lat="48.61017" lon="1.91969">
        <ele>141</ele>
        <time>2020-07-21T12:44:36Z</time>
      </trkpt>
      <trkpt lat="48.6103" lon="1.91982">
        <ele>141</ele>
        <time>2020-07-21T12:44:50Z</time>
      </trkpt>
      <trkpt lat="48.61038" lon="1.91986">
        <ele>142</ele>
        <time>2020-07-21T12:44:55Z</time>
      </trkpt>
      <trkpt lat="48.6104" lon="1.91987">
        <ele>142</ele>
        <time>2020-07-21T12:44:56Z</time>
      </trkpt>
      <trkpt lat="48.61058" lon="1.92001">
        <ele>144</ele>
        <time>2020-07-21T12:45:08Z</time>
      </trkpt>
      <trkpt lat="48.61075" lon="1.9201">
        <ele>145</ele>
        <time>2020-07-21T12:45:19Z</time>
      </trkpt>
      <trkpt lat="48.61094" lon="1.92019">
        <ele>148</ele>
        <time>2020-07-21T12:45:31Z</time>
      </trkpt>
      <trkpt lat="48.61101" lon="1.92025">
        <ele>148</ele>
        <time>2020-07-21T12:45:37Z</time>
      </trkpt>
      <trkpt lat="48.61109" lon="1.92029">
        <ele>148</ele>
        <time>2020-07-21T12:45:42Z</time>
      </trkpt>
      <trkpt lat="48.6111" lon="1.92032">
        <ele>148</ele>
        <time>2020-07-21T12:45:44Z</time>
      </trkpt>
      <trkpt lat="48.61123" lon="1.92035">
        <ele>149</ele>
        <time>2020-07-21T12:45:55Z</time>
      </trkpt>
      <trkpt lat="48.61135" lon="1.92038">
        <ele>149</ele>
        <time>2020-07-21T12:46:04Z</time>
      </trkpt>
      <trkpt lat="48.6115" lon="1.92039">
        <ele>150</ele>
        <time>2020-07-21T12:46:15Z</time>
      </trkpt>
      <trkpt lat="48.61166" lon="1.92039">
        <ele>150</ele>
        <time>2020-07-21T12:46:26Z</time>
      </trkpt>
      <trkpt lat="48.61183" lon="1.92038">
        <ele>154</ele>
        <time>2020-07-21T12:46:39Z</time>
      </trkpt>
      <trkpt lat="48.61195" lon="1.92029">
        <ele>154</ele>
        <time>2020-07-21T12:46:51Z</time>
      </trkpt>
      <trkpt lat="48.61206" lon="1.92012">
        <ele>154</ele>
        <time>2020-07-21T12:47:03Z</time>
      </trkpt>
      <trkpt lat="48.61217" lon="1.91998">
        <ele>154</ele>
        <time>2020-07-21T12:47:12Z</time>
      </trkpt>
      <trkpt lat="48.61219" lon="1.91995">
        <ele>154</ele>
        <time>2020-07-21T12:47:13Z</time>
      </trkpt>
      <trkpt lat="48.61231" lon="1.91975">
        <ele>154</ele>
        <time>2020-07-21T12:47:24Z</time>
      </trkpt>
      <trkpt lat="48.61242" lon="1.91956">
        <ele>154</ele>
        <time>2020-07-21T12:47:34Z</time>
      </trkpt>
      <trkpt lat="48.61254" lon="1.91934">
        <ele>158</ele>
        <time>2020-07-21T12:47:47Z</time>
      </trkpt>
      <trkpt lat="48.61265" lon="1.91914">
        <ele>157</ele>
        <time>2020-07-21T12:47:59Z</time>
      </trkpt>
      <trkpt lat="48.61271" lon="1.91904">
        <ele>157</ele>
        <time>2020-07-21T12:48:03Z</time>
      </trkpt>
      <trkpt lat="48.61281" lon="1.91882">
        <ele>158</ele>
        <time>2020-07-21T12:48:17Z</time>
      </trkpt>
      <trkpt lat="48.61289" lon="1.91861">
        <ele>158</ele>
        <time>2020-07-21T12:48:28Z</time>
      </trkpt>
      <trkpt lat="48.61293" lon="1.91854">
        <ele>158</ele>
        <time>2020-07-21T12:48:32Z</time>
      </trkpt>
      <trkpt lat="48.61293" lon="1.91851">
        <ele>158</ele>
        <time>2020-07-21T12:48:33Z</time>
      </trkpt>
      <trkpt lat="48.61294" lon="1.91844">
        <ele>158</ele>
        <time>2020-07-21T12:48:36Z</time>
      </trkpt>
      <trkpt lat="48.61302" lon="1.91812">
        <ele>155</ele>
        <time>2020-07-21T12:48:48Z</time>
      </trkpt>
      <trkpt lat="48.61306" lon="1.91785">
        <ele>154</ele>
        <time>2020-07-21T12:49:02Z</time>
      </trkpt>
      <trkpt lat="48.61314" lon="1.91756">
        <ele>154</ele>
        <time>2020-07-21T12:49:15Z</time>
      </trkpt>
      <trkpt lat="48.61318" lon="1.91729">
        <ele>151</ele>
        <time>2020-07-21T12:49:27Z</time>
      </trkpt>
      <trkpt lat="48.61325" lon="1.91708">
        <ele>150</ele>
        <time>2020-07-21T12:49:37Z</time>
      </trkpt>
      <trkpt lat="48.61333" lon="1.91692">
        <ele>150</ele>
        <time>2020-07-21T12:49:49Z</time>
      </trkpt>
      <trkpt lat="48.61349" lon="1.91676">
        <ele>150</ele>
        <time>2020-07-21T12:50:00Z</time>
      </trkpt>
      <trkpt lat="48.61364" lon="1.91661">
        <ele>147</ele>
        <time>2020-07-21T12:50:12Z</time>
      </trkpt>
      <trkpt lat="48.61378" lon="1.91648">
        <ele>147</ele>
        <time>2020-07-21T12:50:22Z</time>
      </trkpt>
      <trkpt lat="48.61388" lon="1.91632">
        <ele>147</ele>
        <time>2020-07-21T12:50:32Z</time>
      </trkpt>
      <trkpt lat="48.61396" lon="1.91612">
        <ele>147</ele>
        <time>2020-07-21T12:50:43Z</time>
      </trkpt>
      <trkpt lat="48.61397" lon="1.91611">
        <ele>147</ele>
        <time>2020-07-21T12:50:44Z</time>
      </trkpt>
      <trkpt lat="48.61409" lon="1.91608">
        <ele>147</ele>
        <time>2020-07-21T12:50:56Z</time>
      </trkpt>
      <trkpt lat="48.61424" lon="1.91608">
        <ele>152</ele>
        <time>2020-07-21T12:51:10Z</time>
      </trkpt>
      <trkpt lat="48.61431" lon="1.91608">
        <ele>152</ele>
        <time>2020-07-21T12:51:14Z</time>
      </trkpt>
      <trkpt lat="48.61433" lon="1.91609">
        <ele>152</ele>
        <time>2020-07-21T12:51:15Z</time>
      </trkpt>
      <trkpt lat="48.61435" lon="1.91609">
        <ele>153</ele>
        <time>2020-07-21T12:51:16Z</time>
      </trkpt>
      <trkpt lat="48.61437" lon="1.91609">
        <ele>153</ele>
        <time>2020-07-21T12:51:17Z</time>
      </trkpt>
      <trkpt lat="48.6145" lon="1.91609">
        <ele>154</ele>
        <time>2020-07-21T12:51:30Z</time>
      </trkpt>
      <trkpt lat="48.61466" lon="1.91609">
        <ele>155</ele>
        <time>2020-07-21T12:51:42Z</time>
      </trkpt>
      <trkpt lat="48.61479" lon="1.91607">
        <ele>156</ele>
        <time>2020-07-21T12:51:53Z</time>
      </trkpt>
      <trkpt lat="48.6148" lon="1.91609">
        <ele>156</ele>
        <time>2020-07-21T12:51:54Z</time>
      </trkpt>
      <trkpt lat="48.61491" lon="1.91609">
        <ele>157</ele>
        <time>2020-07-21T12:52:06Z</time>
      </trkpt>
      <trkpt lat="48.61503" lon="1.91611">
        <ele>165</ele>
        <time>2020-07-21T12:52:19Z</time>
      </trkpt>
      <trkpt lat="48.61513" lon="1.91611">
        <ele>165</ele>
        <time>2020-07-21T12:52:30Z</time>
      </trkpt>
      <trkpt lat="48.61522" lon="1.9161">
        <ele>166</ele>
        <time>2020-07-21T12:52:43Z</time>
      </trkpt>
      <trkpt lat="48.61529" lon="1.91608">
        <ele>167</ele>
        <time>2020-07-21T12:52:55Z</time>
      </trkpt>
      <trkpt lat="48.6154" lon="1.91606">
        <ele>168</ele>
        <time>2020-07-21T12:53:05Z</time>
      </trkpt>
      <trkpt lat="48.6155" lon="1.91595">
        <ele>169</ele>
        <time>2020-07-21T12:53:17Z</time>
      </trkpt>
      <trkpt lat="48.61555" lon="1.91577">
        <ele>170</ele>
        <time>2020-07-21T12:53:27Z</time>
      </trkpt>
      <trkpt lat="48.61556" lon="1.9157">
        <ele>170</ele>
        <time>2020-07-21T12:53:31Z</time>
      </trkpt>
      <trkpt lat="48.61559" lon="1.91548">
        <ele>170</ele>
        <time>2020-07-21T12:53:44Z</time>
      </trkpt>
      <trkpt lat="48.61559" lon="1.91538">
        <ele>170</ele>
        <time>2020-07-21T12:53:48Z</time>
      </trkpt>
      <trkpt lat="48.61559" lon="1.91535">
        <ele>170</ele>
        <time>2020-07-21T12:53:49Z</time>
      </trkpt>
      <trkpt lat="48.61558" lon="1.91524">
        <ele>170</ele>
        <time>2020-07-21T12:53:54Z</time>
      </trkpt>
      <trkpt lat="48.61555" lon="1.915">
        <ele>170</ele>
        <time>2020-07-21T12:54:07Z</time>
      </trkpt>
      <trkpt lat="48.61553" lon="1.91484">
        <ele>169</ele>
        <time>2020-07-21T12:54:16Z</time>
      </trkpt>
      <trkpt lat="48.61554" lon="1.91481">
        <ele>169</ele>
        <time>2020-07-21T12:54:17Z</time>
      </trkpt>
      <trkpt lat="48.61554" lon="1.91478">
        <ele>168</ele>
        <time>2020-07-21T12:54:18Z</time>
      </trkpt>
      <trkpt lat="48.61554" lon="1.91475">
        <ele>168</ele>
        <time>2020-07-21T12:54:19Z</time>
      </trkpt>
      <trkpt lat="48.61554" lon="1.91472">
        <ele>168</ele>
        <time>2020-07-21T12:54:20Z</time>
      </trkpt>
      <trkpt lat="48.61554" lon="1.91469">
        <ele>168</ele>
        <time>2020-07-21T12:54:21Z</time>
      </trkpt>
      <trkpt lat="48.61558" lon="1.91459">
        <ele>168</ele>
        <time>2020-07-21T12:54:33Z</time>
      </trkpt>
      <trkpt lat="48.6156" lon="1.91459">
        <ele>168</ele>
        <time>2020-07-21T12:54:35Z</time>
      </trkpt>
      <trkpt lat="48.61561" lon="1.91459">
        <ele>168</ele>
        <time>2020-07-21T12:54:36Z</time>
      </trkpt>
      <trkpt lat="48.61575" lon="1.91457">
        <ele>169</ele>
        <time>2020-07-21T12:54:49Z</time>
      </trkpt>
      <trkpt lat="48.61592" lon="1.91459">
        <ele>172</ele>
        <time>2020-07-21T12:55:01Z</time>
      </trkpt>
      <trkpt lat="48.61605" lon="1.91458">
        <ele>172</ele>
        <time>2020-07-21T12:55:13Z</time>
      </trkpt>
      <trkpt lat="48.61623" lon="1.91459">
        <ele>172</ele>
        <time>2020-07-21T12:55:27Z</time>
      </trkpt>
      <trkpt lat="48.61643" lon="1.91462">
        <ele>172</ele>
        <time>2020-07-21T12:55:42Z</time>
      </trkpt>
      <trkpt lat="48.61653" lon="1.91461">
        <ele>172</ele>
        <time>2020-07-21T12:55:48Z</time>
      </trkpt>
      <trkpt lat="48.61662" lon="1.91461">
        <ele>172</ele>
        <time>2020-07-21T12:55:54Z</time>
      </trkpt>
      <trkpt lat="48.61682" lon="1.91461">
        <ele>174</ele>
        <time>2020-07-21T12:56:08Z</time>
      </trkpt>
      <trkpt lat="48.61686" lon="1.91461">
        <ele>174</ele>
        <time>2020-07-21T12:56:11Z</time>
      </trkpt>
      <trkpt lat="48.61693" lon="1.91463">
        <ele>174</ele>
        <time>2020-07-21T12:56:16Z</time>
      </trkpt>
      <trkpt lat="48.61697" lon="1.91463">
        <ele>174</ele>
        <time>2020-07-21T12:56:18Z</time>
      </trkpt>
      <trkpt lat="48.61709" lon="1.91464">
        <ele>174</ele>
        <time>2020-07-21T12:56:29Z</time>
      </trkpt>
      <trkpt lat="48.61719" lon="1.91468">
        <ele>175</ele>
        <time>2020-07-21T12:56:35Z</time>
      </trkpt>
      <trkpt lat="48.61721" lon="1.9147">
        <ele>175</ele>
        <time>2020-07-21T12:56:36Z</time>
      </trkpt>
      <trkpt lat="48.61722" lon="1.91471">
        <ele>175</ele>
        <time>2020-07-21T12:56:37Z</time>
      </trkpt>
      <trkpt lat="48.61723" lon="1.91472">
        <ele>175</ele>
        <time>2020-07-21T12:56:38Z</time>
      </trkpt>
      <trkpt lat="48.61725" lon="1.91474">
        <ele>175</ele>
        <time>2020-07-21T12:56:39Z</time>
      </trkpt>
      <trkpt lat="48.61727" lon="1.91476">
        <ele>175</ele>
        <time>2020-07-21T12:56:40Z</time>
      </trkpt>
      <trkpt lat="48.61728" lon="1.91477">
        <ele>175</ele>
        <time>2020-07-21T12:56:41Z</time>
      </trkpt>
      <trkpt lat="48.6173" lon="1.91479">
        <ele>175</ele>
        <time>2020-07-21T12:56:42Z</time>
      </trkpt>
      <trkpt lat="48.61744" lon="1.9149">
        <ele>177</ele>
        <time>2020-07-21T12:56:55Z</time>
      </trkpt>
      <trkpt lat="48.6176" lon="1.91502">
        <ele>178</ele>
        <time>2020-07-21T12:57:09Z</time>
      </trkpt>
      <trkpt lat="48.61779" lon="1.91529">
        <ele>178</ele>
        <time>2020-07-21T12:57:25Z</time>
      </trkpt>
      <trkpt lat="48.61787" lon="1.91545">
        <ele>178</ele>
        <time>2020-07-21T12:57:34Z</time>
      </trkpt>
      <trkpt lat="48.61789" lon="1.91547">
        <ele>178</ele>
        <time>2020-07-21T12:57:35Z</time>
      </trkpt>
      <trkpt lat="48.61795" lon="1.91562">
        <ele>178</ele>
        <time>2020-07-21T12:57:47Z</time>
      </trkpt>
      <trkpt lat="48.61807" lon="1.91585">
        <ele>178</ele>
        <time>2020-07-21T12:58:03Z</time>
      </trkpt>
      <trkpt lat="48.61818" lon="1.9161">
        <ele>178</ele>
        <time>2020-07-21T12:58:17Z</time>
      </trkpt>
      <trkpt lat="48.61833" lon="1.91627">
        <ele>178</ele>
        <time>2020-07-21T12:58:28Z</time>
      </trkpt>
      <trkpt lat="48.61839" lon="1.9163">
        <ele>178</ele>
        <time>2020-07-21T12:58:32Z</time>
      </trkpt>
      <trkpt lat="48.61841" lon="1.91631">
        <ele>178</ele>
        <time>2020-07-21T12:58:33Z</time>
      </trkpt>
      <trkpt lat="48.61842" lon="1.91634">
        <ele>178</ele>
        <time>2020-07-21T12:58:34Z</time>
      </trkpt>
      <trkpt lat="48.61843" lon="1.91636">
        <ele>178</ele>
        <time>2020-07-21T12:58:35Z</time>
      </trkpt>
      <trkpt lat="48.61844" lon="1.91639">
        <ele>178</ele>
        <time>2020-07-21T12:58:36Z</time>
      </trkpt>
      <trkpt lat="48.61845" lon="1.91641">
        <ele>178</ele>
        <time>2020-07-21T12:58:37Z</time>
      </trkpt>
      <trkpt lat="48.61857" lon="1.91668">
        <ele>178</ele>
        <time>2020-07-21T12:58:51Z</time>
      </trkpt>
      <trkpt lat="48.6187" lon="1.91674">
        <ele>178</ele>
        <time>2020-07-21T12:58:59Z</time>
      </trkpt>
      <trkpt lat="48.61871" lon="1.91674">
        <ele>178</ele>
        <time>2020-07-21T12:59:00Z</time>
      </trkpt>
      <trkpt lat="48.61878" lon="1.91667">
        <ele>178</ele>
        <time>2020-07-21T12:59:11Z</time>
      </trkpt>
      <trkpt lat="48.61891" lon="1.91653">
        <ele>178</ele>
        <time>2020-07-21T12:59:25Z</time>
      </trkpt>
      <trkpt lat="48.61894" lon="1.91648">
        <ele>178</ele>
        <time>2020-07-21T12:59:28Z</time>
      </trkpt>
      <trkpt lat="48.61898" lon="1.91644">
        <ele>178</ele>
        <time>2020-07-21T12:59:31Z</time>
      </trkpt>
      <trkpt lat="48.61911" lon="1.91633">
        <ele>179</ele>
        <time>2020-07-21T12:59:39Z</time>
      </trkpt>
      <trkpt lat="48.61918" lon="1.91627">
        <ele>179</ele>
        <time>2020-07-21T12:59:44Z</time>
      </trkpt>
      <trkpt lat="48.61929" lon="1.91614">
        <ele>179</ele>
        <time>2020-07-21T12:59:54Z</time>
      </trkpt>
      <trkpt lat="48.61939" lon="1.91605">
        <ele>179</ele>
        <time>2020-07-21T13:00:00Z</time>
      </trkpt>
      <trkpt lat="48.61949" lon="1.91597">
        <ele>179</ele>
        <time>2020-07-21T13:00:10Z</time>
      </trkpt>
      <trkpt lat="48.61957" lon="1.91588">
        <ele>179</ele>
        <time>2020-07-21T13:00:16Z</time>
      </trkpt>
      <trkpt lat="48.61958" lon="1.91586">
        <ele>179</ele>
        <time>2020-07-21T13:00:17Z</time>
      </trkpt>
      <trkpt lat="48.6196" lon="1.91584">
        <ele>179</ele>
        <time>2020-07-21T13:00:18Z</time>
      </trkpt>
      <trkpt lat="48.61961" lon="1.91583">
        <ele>179</ele>
        <time>2020-07-21T13:00:19Z</time>
      </trkpt>
      <trkpt lat="48.61962" lon="1.91582">
        <ele>179</ele>
        <time>2020-07-21T13:00:20Z</time>
      </trkpt>
      <trkpt lat="48.61973" lon="1.91568">
        <ele>179</ele>
        <time>2020-07-21T13:00:34Z</time>
      </trkpt>
      <trkpt lat="48.61994" lon="1.91543">
        <ele>179</ele>
        <time>2020-07-21T13:00:53Z</time>
      </trkpt>
      <trkpt lat="48.6202" lon="1.91521">
        <ele>178</ele>
        <time>2020-07-21T13:01:15Z</time>
      </trkpt>
      <trkpt lat="48.62047" lon="1.91494">
        <ele>176</ele>
        <time>2020-07-21T13:01:36Z</time>
      </trkpt>
      <trkpt lat="48.6208" lon="1.91471">
        <ele>176</ele>
        <time>2020-07-21T13:01:59Z</time>
      </trkpt>
      <trkpt lat="48.62111" lon="1.91458">
        <ele>176</ele>
        <time>2020-07-21T13:02:18Z</time>
      </trkpt>
      <trkpt lat="48.62136" lon="1.91445">
        <ele>175</ele>
        <time>2020-07-21T13:02:35Z</time>
      </trkpt>
      <trkpt lat="48.62164" lon="1.91431">
        <ele>175</ele>
        <time>2020-07-21T13:02:59Z</time>
      </trkpt>
      <trkpt lat="48.62194" lon="1.91401">
        <ele>175</ele>
        <time>2020-07-21T13:03:19Z</time>
      </trkpt>
      <trkpt lat="48.62215" lon="1.91381">
        <ele>175</ele>
        <time>2020-07-21T13:03:37Z</time>
      </trkpt>
      <trkpt lat="48.62238" lon="1.91359">
        <ele>176</ele>
        <time>2020-07-21T13:03:57Z</time>
      </trkpt>
      <trkpt lat="48.62259" lon="1.91346">
        <ele>176</ele>
        <time>2020-07-21T13:04:14Z</time>
      </trkpt>
      <trkpt lat="48.62285" lon="1.91328">
        <ele>177</ele>
        <time>2020-07-21T13:04:35Z</time>
      </trkpt>
      <trkpt lat="48.62308" lon="1.91306">
        <ele>177</ele>
        <time>2020-07-21T13:04:52Z</time>
      </trkpt>
      <trkpt lat="48.62333" lon="1.91274">
        <ele>178</ele>
        <time>2020-07-21T13:05:03Z</time>
      </trkpt>
      <trkpt lat="48.62352" lon="1.9129">
        <ele>178</ele>
        <time>2020-07-21T13:05:22Z</time>
      </trkpt>
      <trkpt lat="48.62355" lon="1.91293">
        <ele>178</ele>
        <time>2020-07-21T13:05:24Z</time>
      </trkpt>
      <trkpt lat="48.62373" lon="1.91312">
        <ele>178</ele>
        <time>2020-07-21T13:05:40Z</time>
      </trkpt>
      <trkpt lat="48.62403" lon="1.91331">
        <ele>177</ele>
        <time>2020-07-21T13:06:01Z</time>
      </trkpt>
      <trkpt lat="48.62417" lon="1.91341">
        <ele>177</ele>
        <time>2020-07-21T13:06:15Z</time>
      </trkpt>
      <trkpt lat="48.62435" lon="1.91356">
        <ele>177</ele>
        <time>2020-07-21T13:06:31Z</time>
      </trkpt>
      <trkpt lat="48.62454" lon="1.91376">
        <ele>177</ele>
        <time>2020-07-21T13:06:47Z</time>
      </trkpt>
      <trkpt lat="48.62481" lon="1.91404">
        <ele>178</ele>
        <time>2020-07-21T13:07:04Z</time>
      </trkpt>
      <trkpt lat="48.62505" lon="1.91433">
        <ele>178</ele>
        <time>2020-07-21T13:07:22Z</time>
      </trkpt>
      <trkpt lat="48.62526" lon="1.9146">
        <ele>178</ele>
        <time>2020-07-21T13:07:39Z</time>
      </trkpt>
      <trkpt lat="48.6253" lon="1.91469">
        <ele>178</ele>
        <time>2020-07-21T13:07:45Z</time>
      </trkpt>
      <trkpt lat="48.62531" lon="1.91471">
        <ele>178</ele>
        <time>2020-07-21T13:07:46Z</time>
      </trkpt>
      <trkpt lat="48.62532" lon="1.91473">
        <ele>178</ele>
        <time>2020-07-21T13:07:47Z</time>
      </trkpt>
      <trkpt lat="48.62533" lon="1.91475">
        <ele>178</ele>
        <time>2020-07-21T13:07:48Z</time>
      </trkpt>
      <trkpt lat="48.62535" lon="1.91476">
        <ele>178</ele>
        <time>2020-07-21T13:07:49Z</time>
      </trkpt>
      <trkpt lat="48.62563" lon="1.91497">
        <ele>178</ele>
        <time>2020-07-21T13:08:08Z</time>
      </trkpt>
      <trkpt lat="48.6258" lon="1.91523">
        <ele>178</ele>
        <time>2020-07-21T13:08:26Z</time>
      </trkpt>
      <trkpt lat="48.62601" lon="1.91545">
        <ele>178</ele>
        <time>2020-07-21T13:08:45Z</time>
      </trkpt>
      <trkpt lat="48.62621" lon="1.91573">
        <ele>178</ele>
        <time>2020-07-21T13:09:01Z</time>
      </trkpt>
      <trkpt lat="48.62643" lon="1.91598">
        <ele>178</ele>
        <time>2020-07-21T13:09:16Z</time>
      </trkpt>
      <trkpt lat="48.62652" lon="1.91606">
        <ele>178</ele>
        <time>2020-07-21T13:09:24Z</time>
      </trkpt>
      <trkpt lat="48.62653" lon="1.91607">
        <ele>178</ele>
        <time>2020-07-21T13:09:25Z</time>
      </trkpt>
      <trkpt lat="48.62655" lon="1.91609">
        <ele>178</ele>
        <time>2020-07-21T13:09:26Z</time>
      </trkpt>
      <trkpt lat="48.62656" lon="1.9161">
        <ele>178</ele>
        <time>2020-07-21T13:09:27Z</time>
      </trkpt>
      <trkpt lat="48.62658" lon="1.91612">
        <ele>178</ele>
        <time>2020-07-21T13:09:28Z</time>
      </trkpt>
      <trkpt lat="48.62684" lon="1.91646">
        <ele>178</ele>
        <time>2020-07-21T13:09:47Z</time>
      </trkpt>
      <trkpt lat="48.6271" lon="1.91672">
        <ele>178</ele>
        <time>2020-07-21T13:10:05Z</time>
      </trkpt>
      <trkpt lat="48.6273" lon="1.91703">
        <ele>178</ele>
        <time>2020-07-21T13:10:23Z</time>
      </trkpt>
      <trkpt lat="48.62756" lon="1.91717">
        <ele>178</ele>
        <time>2020-07-21T13:10:40Z</time>
      </trkpt>
      <trkpt lat="48.62777" lon="1.91734">
        <ele>178</ele>
        <time>2020-07-21T13:10:56Z</time>
      </trkpt>
      <trkpt lat="48.62798" lon="1.91749">
        <ele>178</ele>
        <time>2020-07-21T13:11:15Z</time>
      </trkpt>
      <trkpt lat="48.62819" lon="1.9177">
        <ele>179</ele>
        <time>2020-07-21T13:11:33Z</time>
      </trkpt>
      <trkpt lat="48.62842" lon="1.91795">
        <ele>177</ele>
        <time>2020-07-21T13:11:50Z</time>
      </trkpt>
      <trkpt lat="48.62859" lon="1.91822">
        <ele>177</ele>
        <time>2020-07-21T13:12:08Z</time>
      </trkpt>
      <trkpt lat="48.62882" lon="1.9185">
        <ele>176</ele>
        <time>2020-07-21T13:12:28Z</time>
      </trkpt>
      <trkpt lat="48.62897" lon="1.9187">
        <ele>176</ele>
        <time>2020-07-21T13:12:44Z</time>
      </trkpt>
      <trkpt lat="48.62922" lon="1.91894">
        <ele>175</ele>
        <time>2020-07-21T13:13:04Z</time>
      </trkpt>
      <trkpt lat="48.62954" lon="1.91925">
        <ele>175</ele>
        <time>2020-07-21T13:13:24Z</time>
      </trkpt>
      <trkpt lat="48.62984" lon="1.91959">
        <ele>175</ele>
        <time>2020-07-21T13:13:46Z</time>
      </trkpt>
      <trkpt lat="48.6301" lon="1.91986">
        <ele>175</ele>
        <time>2020-07-21T13:14:07Z</time>
      </trkpt>
      <trkpt lat="48.63028" lon="1.91994">
        <ele>175</ele>
        <time>2020-07-21T13:14:20Z</time>
      </trkpt>
      <trkpt lat="48.63049" lon="1.92014">
        <ele>176</ele>
        <time>2020-07-21T13:14:35Z</time>
      </trkpt>
      <trkpt lat="48.63076" lon="1.92054">
        <ele>176</ele>
        <time>2020-07-21T13:14:57Z</time>
      </trkpt>
      <trkpt lat="48.63081" lon="1.92059">
        <ele>176</ele>
        <time>2020-07-21T13:15:01Z</time>
      </trkpt>
      <trkpt lat="48.63097" lon="1.92042">
        <ele>173</ele>
        <time>2020-07-21T13:15:18Z</time>
      </trkpt>
      <trkpt lat="48.63103" lon="1.92031">
        <ele>173</ele>
        <time>2020-07-21T13:15:25Z</time>
      </trkpt>
      <trkpt lat="48.63119" lon="1.92005">
        <ele>172</ele>
        <time>2020-07-21T13:15:42Z</time>
      </trkpt>
      <trkpt lat="48.6312" lon="1.91996">
        <ele>171</ele>
        <time>2020-07-21T13:16:14Z</time>
      </trkpt>
      <trkpt lat="48.63125" lon="1.91984">
        <ele>171</ele>
        <time>2020-07-21T13:16:36Z</time>
      </trkpt>
      <trkpt lat="48.63137" lon="1.91959">
        <ele>170</ele>
        <time>2020-07-21T13:16:52Z</time>
      </trkpt>
      <trkpt lat="48.6315" lon="1.91933">
        <ele>168</ele>
        <time>2020-07-21T13:17:10Z</time>
      </trkpt>
      <trkpt lat="48.63159" lon="1.91915">
        <ele>166</ele>
        <time>2020-07-21T13:17:21Z</time>
      </trkpt>
      <trkpt lat="48.63163" lon="1.91903">
        <ele>166</ele>
        <time>2020-07-21T13:17:26Z</time>
      </trkpt>
      <trkpt lat="48.63178" lon="1.91873">
        <ele>164</ele>
        <time>2020-07-21T13:17:44Z</time>
      </trkpt>
      <trkpt lat="48.63187" lon="1.91847">
        <ele>164</ele>
        <time>2020-07-21T13:18:01Z</time>
      </trkpt>
      <trkpt lat="48.63203" lon="1.91819">
        <ele>165</ele>
        <time>2020-07-21T13:18:17Z</time>
      </trkpt>
      <trkpt lat="48.63215" lon="1.91795">
        <ele>166</ele>
        <time>2020-07-21T13:18:31Z</time>
      </trkpt>
      <trkpt lat="48.63227" lon="1.91769">
        <ele>166</ele>
        <time>2020-07-21T13:18:49Z</time>
      </trkpt>
      <trkpt lat="48.63245" lon="1.91732">
        <ele>168</ele>
        <time>2020-07-21T13:19:11Z</time>
      </trkpt>
      <trkpt lat="48.63259" lon="1.91699">
        <ele>171</ele>
        <time>2020-07-21T13:19:29Z</time>
      </trkpt>
      <trkpt lat="48.63265" lon="1.91677">
        <ele>171</ele>
        <time>2020-07-21T13:19:47Z</time>
      </trkpt>
      <trkpt lat="48.63264" lon="1.91673">
        <ele>170</ele>
        <time>2020-07-21T13:20:00Z</time>
      </trkpt>
      <trkpt lat="48.63267" lon="1.91662">
        <ele>171</ele>
        <time>2020-07-21T13:20:02Z</time>
      </trkpt>
      <trkpt lat="48.63285" lon="1.91629">
        <ele>172</ele>
        <time>2020-07-21T13:20:26Z</time>
      </trkpt>
      <trkpt lat="48.63302" lon="1.91602">
        <ele>173</ele>
        <time>2020-07-21T13:20:47Z</time>
      </trkpt>
      <trkpt lat="48.63322" lon="1.91567">
        <ele>174</ele>
        <time>2020-07-21T13:21:11Z</time>
      </trkpt>
      <trkpt lat="48.63338" lon="1.91531">
        <ele>176</ele>
        <time>2020-07-21T13:21:32Z</time>
      </trkpt>
      <trkpt lat="48.63349" lon="1.91505">
        <ele>176</ele>
        <time>2020-07-21T13:21:54Z</time>
      </trkpt>
      <trkpt lat="48.63363" lon="1.91473">
        <ele>175</ele>
        <time>2020-07-21T13:22:13Z</time>
      </trkpt>
      <trkpt lat="48.63383" lon="1.9143">
        <ele>175</ele>
        <time>2020-07-21T13:22:33Z</time>
      </trkpt>
      <trkpt lat="48.63401" lon="1.91396">
        <ele>175</ele>
        <time>2020-07-21T13:22:53Z</time>
      </trkpt>
      <trkpt lat="48.63419" lon="1.9135">
        <ele>175</ele>
        <time>2020-07-21T13:23:10Z</time>
      </trkpt>
      <trkpt lat="48.63433" lon="1.91321">
        <ele>176</ele>
        <time>2020-07-21T13:23:27Z</time>
      </trkpt>
      <trkpt lat="48.63447" lon="1.91296">
        <ele>176</ele>
        <time>2020-07-21T13:23:42Z</time>
      </trkpt>
      <trkpt lat="48.63468" lon="1.91259">
        <ele>175</ele>
        <time>2020-07-21T13:24:01Z</time>
      </trkpt>
      <trkpt lat="48.63483" lon="1.91229">
        <ele>175</ele>
        <time>2020-07-21T13:24:20Z</time>
      </trkpt>
      <trkpt lat="48.63496" lon="1.91192">
        <ele>175</ele>
        <time>2020-07-21T13:24:41Z</time>
      </trkpt>
      <trkpt lat="48.63514" lon="1.91158">
        <ele>174</ele>
        <time>2020-07-21T13:24:59Z</time>
      </trkpt>
      <trkpt lat="48.63534" lon="1.91122">
        <ele>174</ele>
        <time>2020-07-21T13:25:20Z</time>
      </trkpt>
      <trkpt lat="48.63549" lon="1.91085">
        <ele>174</ele>
        <time>2020-07-21T13:25:40Z</time>
      </trkpt>
      <trkpt lat="48.63568" lon="1.91047">
        <ele>174</ele>
        <time>2020-07-21T13:26:02Z</time>
      </trkpt>
      <trkpt lat="48.63587" lon="1.91007">
        <ele>174</ele>
        <time>2020-07-21T13:26:20Z</time>
      </trkpt>
      <trkpt lat="48.63603" lon="1.90979">
        <ele>175</ele>
        <time>2020-07-21T13:26:37Z</time>
      </trkpt>
      <trkpt lat="48.63622" lon="1.90937">
        <ele>175</ele>
        <time>2020-07-21T13:26:57Z</time>
      </trkpt>
      <trkpt lat="48.63638" lon="1.90901">
        <ele>175</ele>
        <time>2020-07-21T13:27:19Z</time>
      </trkpt>
      <trkpt lat="48.63656" lon="1.9086">
        <ele>175</ele>
        <time>2020-07-21T13:27:43Z</time>
      </trkpt>
      <trkpt lat="48.63679" lon="1.90815">
        <ele>174</ele>
        <time>2020-07-21T13:28:06Z</time>
      </trkpt>
      <trkpt lat="48.63691" lon="1.90754">
        <ele>174</ele>
        <time>2020-07-21T13:28:27Z</time>
      </trkpt>
      <trkpt lat="48.63708" lon="1.90731">
        <ele>175</ele>
        <time>2020-07-21T13:28:42Z</time>
      </trkpt>
      <trkpt lat="48.63726" lon="1.90698">
        <ele>175</ele>
        <time>2020-07-21T13:29:01Z</time>
      </trkpt>
      <trkpt lat="48.63742" lon="1.90668">
        <ele>175</ele>
        <time>2020-07-21T13:29:17Z</time>
      </trkpt>
      <trkpt lat="48.63765" lon="1.90628">
        <ele>175</ele>
        <time>2020-07-21T13:29:38Z</time>
      </trkpt>
      <trkpt lat="48.63779" lon="1.90596">
        <ele>175</ele>
        <time>2020-07-21T13:29:57Z</time>
      </trkpt>
      <trkpt lat="48.63787" lon="1.90551">
        <ele>176</ele>
        <time>2020-07-21T13:30:14Z</time>
      </trkpt>
      <trkpt lat="48.63778" lon="1.90536">
        <ele>176</ele>
        <time>2020-07-21T13:30:28Z</time>
      </trkpt>
      <trkpt lat="48.63765" lon="1.90512">
        <ele>177</ele>
        <time>2020-07-21T13:30:45Z</time>
      </trkpt>
      <trkpt lat="48.63759" lon="1.90497">
        <ele>178</ele>
        <time>2020-07-21T13:30:52Z</time>
      </trkpt>
      <trkpt lat="48.63749" lon="1.90481">
        <ele>178</ele>
        <time>2020-07-21T13:31:04Z</time>
      </trkpt>
      <trkpt lat="48.63724" lon="1.90449">
        <ele>178</ele>
        <time>2020-07-21T13:31:28Z</time>
      </trkpt>
      <trkpt lat="48.63702" lon="1.90423">
        <ele>177</ele>
        <time>2020-07-21T13:31:48Z</time>
      </trkpt>
      <trkpt lat="48.63677" lon="1.90404">
        <ele>177</ele>
        <time>2020-07-21T13:32:10Z</time>
      </trkpt>
      <trkpt lat="48.63651" lon="1.90378">
        <ele>177</ele>
        <time>2020-07-21T13:32:29Z</time>
      </trkpt>
      <trkpt lat="48.6363" lon="1.90354">
        <ele>176</ele>
        <time>2020-07-21T13:32:47Z</time>
      </trkpt>
      <trkpt lat="48.63598" lon="1.90325">
        <ele>175</ele>
        <time>2020-07-21T13:33:11Z</time>
      </trkpt>
      <trkpt lat="48.63572" lon="1.90298">
        <ele>176</ele>
        <time>2020-07-21T13:33:32Z</time>
      </trkpt>
      <trkpt lat="48.63544" lon="1.90261">
        <ele>176</ele>
        <time>2020-07-21T13:33:54Z</time>
      </trkpt>
      <trkpt lat="48.63531" lon="1.90244">
        <ele>175</ele>
        <time>2020-07-21T13:34:07Z</time>
      </trkpt>
      <trkpt lat="48.63506" lon="1.90216">
        <ele>175</ele>
        <time>2020-07-21T13:34:31Z</time>
      </trkpt>
      <trkpt lat="48.6349" lon="1.90196">
        <ele>177</ele>
        <time>2020-07-21T13:34:49Z</time>
      </trkpt>
      <trkpt lat="48.63484" lon="1.90206">
        <ele>177</ele>
        <time>2020-07-21T13:35:05Z</time>
      </trkpt>
      <trkpt lat="48.63481" lon="1.9021">
        <ele>177</ele>
        <time>2020-07-21T13:35:08Z</time>
      </trkpt>
      <trkpt lat="48.63477" lon="1.90216">
        <ele>177</ele>
        <time>2020-07-21T13:35:12Z</time>
      </trkpt>
      <trkpt lat="48.63455" lon="1.9025">
        <ele>179</ele>
        <time>2020-07-21T13:35:32Z</time>
      </trkpt>
      <trkpt lat="48.63436" lon="1.90292">
        <ele>180</ele>
        <time>2020-07-21T13:35:54Z</time>
      </trkpt>
      <trkpt lat="48.6342" lon="1.90314">
        <ele>181</ele>
        <time>2020-07-21T13:36:09Z</time>
      </trkpt>
      <trkpt lat="48.63411" lon="1.90345">
        <ele>182</ele>
        <time>2020-07-21T13:36:22Z</time>
      </trkpt>
      <trkpt lat="48.63397" lon="1.90374">
        <ele>180</ele>
        <time>2020-07-21T13:36:39Z</time>
      </trkpt>
      <trkpt lat="48.63383" lon="1.90386">
        <ele>180</ele>
        <time>2020-07-21T13:36:54Z</time>
      </trkpt>
      <trkpt lat="48.63381" lon="1.90376">
        <ele>180</ele>
        <time>2020-07-21T13:37:22Z</time>
      </trkpt>
      <trkpt lat="48.63377" lon="1.90384">
        <ele>180</ele>
        <time>2020-07-21T13:37:31Z</time>
      </trkpt>
      <trkpt lat="48.63372" lon="1.90391">
        <ele>179</ele>
        <time>2020-07-21T13:37:38Z</time>
      </trkpt>
      <trkpt lat="48.63345" lon="1.90407">
        <ele>178</ele>
        <time>2020-07-21T13:37:56Z</time>
      </trkpt>
      <trkpt lat="48.63317" lon="1.90426">
        <ele>177</ele>
        <time>2020-07-21T13:38:17Z</time>
      </trkpt>
      <trkpt lat="48.63295" lon="1.90441">
        <ele>176</ele>
        <time>2020-07-21T13:38:35Z</time>
      </trkpt>
      <trkpt lat="48.63274" lon="1.90458">
        <ele>176</ele>
        <time>2020-07-21T13:38:53Z</time>
      </trkpt>
      <trkpt lat="48.63243" lon="1.90492">
        <ele>176</ele>
        <time>2020-07-21T13:39:16Z</time>
      </trkpt>
      <trkpt lat="48.63224" lon="1.90515">
        <ele>177</ele>
        <time>2020-07-21T13:39:34Z</time>
      </trkpt>
      <trkpt lat="48.63197" lon="1.90537">
        <ele>178</ele>
        <time>2020-07-21T13:39:55Z</time>
      </trkpt>
      <trkpt lat="48.63165" lon="1.90554">
        <ele>178</ele>
        <time>2020-07-21T13:40:16Z</time>
      </trkpt>
      <trkpt lat="48.63132" lon="1.90564">
        <ele>178</ele>
        <time>2020-07-21T13:40:38Z</time>
      </trkpt>
      <trkpt lat="48.63105" lon="1.90576">
        <ele>178</ele>
        <time>2020-07-21T13:40:55Z</time>
      </trkpt>
      <trkpt lat="48.63077" lon="1.90591">
        <ele>178</ele>
        <time>2020-07-21T13:41:10Z</time>
      </trkpt>
      <trkpt lat="48.63048" lon="1.90607">
        <ele>177</ele>
        <time>2020-07-21T13:41:28Z</time>
      </trkpt>
      <trkpt lat="48.63023" lon="1.90621">
        <ele>177</ele>
        <time>2020-07-21T13:41:47Z</time>
      </trkpt>
      <trkpt lat="48.63001" lon="1.90634">
        <ele>177</ele>
        <time>2020-07-21T13:42:03Z</time>
      </trkpt>
      <trkpt lat="48.62984" lon="1.90645">
        <ele>177</ele>
        <time>2020-07-21T13:42:18Z</time>
      </trkpt>
      <trkpt lat="48.62957" lon="1.90656">
        <ele>177</ele>
        <time>2020-07-21T13:42:38Z</time>
      </trkpt>
      <trkpt lat="48.62923" lon="1.90675">
        <ele>178</ele>
        <time>2020-07-21T13:42:59Z</time>
      </trkpt>
      <trkpt lat="48.62894" lon="1.90675">
        <ele>178</ele>
        <time>2020-07-21T13:43:19Z</time>
      </trkpt>
      <trkpt lat="48.62871" lon="1.90671">
        <ele>177</ele>
        <time>2020-07-21T13:43:36Z</time>
      </trkpt>
      <trkpt lat="48.62843" lon="1.90675">
        <ele>177</ele>
        <time>2020-07-21T13:43:55Z</time>
      </trkpt>
      <trkpt lat="48.62811" lon="1.90683">
        <ele>177</ele>
        <time>2020-07-21T13:44:15Z</time>
      </trkpt>
      <trkpt lat="48.62782" lon="1.90694">
        <ele>176</ele>
        <time>2020-07-21T13:44:35Z</time>
      </trkpt>
      <trkpt lat="48.62761" lon="1.90702">
        <ele>176</ele>
        <time>2020-07-21T13:44:49Z</time>
      </trkpt>
      <trkpt lat="48.62756" lon="1.907">
        <ele>176</ele>
        <time>2020-07-21T13:44:53Z</time>
      </trkpt>
      <trkpt lat="48.62729" lon="1.90705">
        <ele>176</ele>
        <time>2020-07-21T13:45:11Z</time>
      </trkpt>
      <trkpt lat="48.62704" lon="1.9072">
        <ele>176</ele>
        <time>2020-07-21T13:45:28Z</time>
      </trkpt>
      <trkpt lat="48.62688" lon="1.90727">
        <ele>176</ele>
        <time>2020-07-21T13:45:43Z</time>
      </trkpt>
      <trkpt lat="48.62677" lon="1.90725">
        <ele>176</ele>
        <time>2020-07-21T13:45:52Z</time>
      </trkpt>
      <trkpt lat="48.62645" lon="1.90714">
        <ele>176</ele>
        <time>2020-07-21T13:46:15Z</time>
      </trkpt>
      <trkpt lat="48.62616" lon="1.90717">
        <ele>176</ele>
        <time>2020-07-21T13:46:34Z</time>
      </trkpt>
      <trkpt lat="48.62576" lon="1.90716">
        <ele>174</ele>
        <time>2020-07-21T13:46:58Z</time>
      </trkpt>
      <trkpt lat="48.6255" lon="1.90713">
        <ele>173</ele>
        <time>2020-07-21T13:47:15Z</time>
      </trkpt>
      <trkpt lat="48.62523" lon="1.90707">
        <ele>172</ele>
        <time>2020-07-21T13:47:31Z</time>
      </trkpt>
      <trkpt lat="48.62501" lon="1.90702">
        <ele>171</ele>
        <time>2020-07-21T13:47:48Z</time>
      </trkpt>
      <trkpt lat="48.62479" lon="1.9069">
        <ele>168</ele>
        <time>2020-07-21T13:48:03Z</time>
      </trkpt>
      <trkpt lat="48.62469" lon="1.90688">
        <ele>168</ele>
        <time>2020-07-21T13:48:10Z</time>
      </trkpt>
      <trkpt lat="48.6244" lon="1.90682">
        <ele>168</ele>
        <time>2020-07-21T13:48:29Z</time>
      </trkpt>
      <trkpt lat="48.6242" lon="1.90668">
        <ele>167</ele>
        <time>2020-07-21T13:48:48Z</time>
      </trkpt>
      <trkpt lat="48.62406" lon="1.90649">
        <ele>167</ele>
        <time>2020-07-21T13:49:04Z</time>
      </trkpt>
      <trkpt lat="48.62391" lon="1.90639">
        <ele>167</ele>
        <time>2020-07-21T13:49:19Z</time>
      </trkpt>
      <trkpt lat="48.6237" lon="1.90634">
        <ele>167</ele>
        <time>2020-07-21T13:49:35Z</time>
      </trkpt>
      <trkpt lat="48.62345" lon="1.90622">
        <ele>167</ele>
        <time>2020-07-21T13:49:54Z</time>
      </trkpt>
      <trkpt lat="48.62318" lon="1.90608">
        <ele>164</ele>
        <time>2020-07-21T13:50:13Z</time>
      </trkpt>
      <trkpt lat="48.62282" lon="1.90597">
        <ele>161</ele>
        <time>2020-07-21T13:50:36Z</time>
      </trkpt>
      <trkpt lat="48.62251" lon="1.90585">
        <ele>156</ele>
        <time>2020-07-21T13:50:56Z</time>
      </trkpt>
      <trkpt lat="48.62222" lon="1.90572">
        <ele>152</ele>
        <time>2020-07-21T13:51:15Z</time>
      </trkpt>
      <trkpt lat="48.6219" lon="1.90557">
        <ele>150</ele>
        <time>2020-07-21T13:51:37Z</time>
      </trkpt>
      <trkpt lat="48.62176" lon="1.90556">
        <ele>149</ele>
        <time>2020-07-21T13:51:48Z</time>
      </trkpt>
      <trkpt lat="48.62149" lon="1.90548">
        <ele>146</ele>
        <time>2020-07-21T13:52:07Z</time>
      </trkpt>
      <trkpt lat="48.62128" lon="1.90535">
        <ele>145</ele>
        <time>2020-07-21T13:52:25Z</time>
      </trkpt>
      <trkpt lat="48.62106" lon="1.90527">
        <ele>144</ele>
        <time>2020-07-21T13:52:38Z</time>
      </trkpt>
      <trkpt lat="48.62084" lon="1.90519">
        <ele>144</ele>
        <time>2020-07-21T13:52:57Z</time>
      </trkpt>
      <trkpt lat="48.6207" lon="1.90517">
        <ele>141</ele>
        <time>2020-07-21T13:53:09Z</time>
      </trkpt>
      <trkpt lat="48.62041" lon="1.90511">
        <ele>140</ele>
        <time>2020-07-21T13:53:27Z</time>
      </trkpt>
      <trkpt lat="48.62016" lon="1.90513">
        <ele>139</ele>
        <time>2020-07-21T13:53:42Z</time>
      </trkpt>
      <trkpt lat="48.61988" lon="1.90506">
        <ele>137</ele>
        <time>2020-07-21T13:54:01Z</time>
      </trkpt>
      <trkpt lat="48.61974" lon="1.90487">
        <ele>136</ele>
        <time>2020-07-21T13:54:17Z</time>
      </trkpt>
      <trkpt lat="48.61975" lon="1.90488">
        <ele>136</ele>
        <time>2020-07-21T13:54:37Z</time>
      </trkpt>
      <trkpt lat="48.61972" lon="1.90493">
        <ele>136</ele>
        <time>2020-07-21T13:55:09Z</time>
      </trkpt>
      <trkpt lat="48.61972" lon="1.9049">
        <ele>136</ele>
        <time>2020-07-21T13:55:37Z</time>
      </trkpt>
      <trkpt lat="48.61968" lon="1.90493">
        <ele>136</ele>
        <time>2020-07-21T13:56:06Z</time>
      </trkpt>
      <trkpt lat="48.61969" lon="1.90511">
        <ele>137</ele>
        <time>2020-07-21T13:56:34Z</time>
      </trkpt>
      <trkpt lat="48.61971" lon="1.90493">
        <ele>136</ele>
        <time>2020-07-21T13:56:56Z</time>
      </trkpt>
      <trkpt lat="48.61967" lon="1.9049">
        <ele>136</ele>
        <time>2020-07-21T13:57:01Z</time>
      </trkpt>
      <trkpt lat="48.61943" lon="1.90471">
        <ele>135</ele>
        <time>2020-07-21T13:57:18Z</time>
      </trkpt>
      <trkpt lat="48.61923" lon="1.90475">
        <ele>135</ele>
        <time>2020-07-21T13:57:34Z</time>
      </trkpt>
      <trkpt lat="48.61905" lon="1.90478">
        <ele>135</ele>
        <time>2020-07-21T13:57:46Z</time>
      </trkpt>
      <trkpt lat="48.61881" lon="1.90471">
        <ele>134</ele>
        <time>2020-07-21T13:58:04Z</time>
      </trkpt>
      <trkpt lat="48.61862" lon="1.90475">
        <ele>134</ele>
        <time>2020-07-21T13:58:18Z</time>
      </trkpt>
      <trkpt lat="48.61838" lon="1.90481">
        <ele>134</ele>
        <time>2020-07-21T13:58:33Z</time>
      </trkpt>
      <trkpt lat="48.61816" lon="1.90487">
        <ele>134</ele>
        <time>2020-07-21T13:58:48Z</time>
      </trkpt>
      <trkpt lat="48.61786" lon="1.90498">
        <ele>134</ele>
        <time>2020-07-21T13:59:09Z</time>
      </trkpt>
      <trkpt lat="48.61761" lon="1.90509">
        <ele>134</ele>
        <time>2020-07-21T13:59:26Z</time>
      </trkpt>
      <trkpt lat="48.6175" lon="1.90514">
        <ele>133</ele>
        <time>2020-07-21T13:59:36Z</time>
      </trkpt>
      <trkpt lat="48.61719" lon="1.90537">
        <ele>133</ele>
        <time>2020-07-21T13:59:57Z</time>
      </trkpt>
      <trkpt lat="48.61711" lon="1.90538">
        <ele>133</ele>
        <time>2020-07-21T14:00:04Z</time>
      </trkpt>
      <trkpt lat="48.61716" lon="1.90497">
        <ele>132</ele>
        <time>2020-07-21T14:00:22Z</time>
      </trkpt>
      <trkpt lat="48.61717" lon="1.9047">
        <ele>132</ele>
        <time>2020-07-21T14:00:36Z</time>
      </trkpt>
      <trkpt lat="48.61718" lon="1.90422">
        <ele>132</ele>
        <time>2020-07-21T14:00:57Z</time>
      </trkpt>
      <trkpt lat="48.61719" lon="1.90387">
        <ele>132</ele>
        <time>2020-07-21T14:01:13Z</time>
      </trkpt>
      <trkpt lat="48.61717" lon="1.90347">
        <ele>131</ele>
        <time>2020-07-21T14:01:36Z</time>
      </trkpt>
      <trkpt lat="48.61709" lon="1.90298">
        <ele>130</ele>
        <time>2020-07-21T14:01:57Z</time>
      </trkpt>
      <trkpt lat="48.61707" lon="1.90293">
        <ele>130</ele>
        <time>2020-07-21T14:02:00Z</time>
      </trkpt>
      <trkpt lat="48.61712" lon="1.90248">
        <ele>129</ele>
        <time>2020-07-21T14:02:19Z</time>
      </trkpt>
      <trkpt lat="48.61709" lon="1.9021">
        <ele>129</ele>
        <time>2020-07-21T14:02:38Z</time>
      </trkpt>
      <trkpt lat="48.61714" lon="1.90161">
        <ele>129</ele>
        <time>2020-07-21T14:02:58Z</time>
      </trkpt>
      <trkpt lat="48.6172" lon="1.90115">
        <ele>129</ele>
        <time>2020-07-21T14:03:21Z</time>
      </trkpt>
      <trkpt lat="48.61729" lon="1.90065">
        <ele>129</ele>
        <time>2020-07-21T14:03:44Z</time>
      </trkpt>
      <trkpt lat="48.61732" lon="1.90019">
        <ele>129</ele>
        <time>2020-07-21T14:04:04Z</time>
      </trkpt>
      <trkpt lat="48.61734" lon="1.89997">
        <ele>129</ele>
        <time>2020-07-21T14:04:15Z</time>
      </trkpt>
      <trkpt lat="48.61741" lon="1.89965">
        <ele>129</ele>
        <time>2020-07-21T14:04:31Z</time>
      </trkpt>
      <trkpt lat="48.61756" lon="1.89933">
        <ele>130</ele>
        <time>2020-07-21T14:04:49Z</time>
      </trkpt>
      <trkpt lat="48.61767" lon="1.89901">
        <ele>132</ele>
        <time>2020-07-21T14:05:05Z</time>
      </trkpt>
      <trkpt lat="48.61765" lon="1.89893">
        <ele>132</ele>
        <time>2020-07-21T14:05:10Z</time>
      </trkpt>
      <trkpt lat="48.61759" lon="1.89881">
        <ele>132</ele>
        <time>2020-07-21T14:05:16Z</time>
      </trkpt>
      <trkpt lat="48.61758" lon="1.89879">
        <ele>132</ele>
        <time>2020-07-21T14:05:17Z</time>
      </trkpt>
      <trkpt lat="48.61757" lon="1.89877">
        <ele>132</ele>
        <time>2020-07-21T14:05:18Z</time>
      </trkpt>
      <trkpt lat="48.61755" lon="1.89873">
        <ele>132</ele>
        <time>2020-07-21T14:05:19Z</time>
      </trkpt>
      <trkpt lat="48.61753" lon="1.8987">
        <ele>132</ele>
        <time>2020-07-21T14:05:20Z</time>
      </trkpt>
      <trkpt lat="48.61752" lon="1.89869">
        <ele>132</ele>
        <time>2020-07-21T14:05:21Z</time>
      </trkpt>
      <trkpt lat="48.61747" lon="1.89854">
        <ele>131</ele>
        <time>2020-07-21T14:05:29Z</time>
      </trkpt>
      <trkpt lat="48.61738" lon="1.89829">
        <ele>132</ele>
        <time>2020-07-21T14:05:44Z</time>
      </trkpt>
      <trkpt lat="48.6173" lon="1.89795">
        <ele>133</ele>
        <time>2020-07-21T14:06:02Z</time>
      </trkpt>
      <trkpt lat="48.61722" lon="1.89753">
        <ele>134</ele>
        <time>2020-07-21T14:06:22Z</time>
      </trkpt>
      <trkpt lat="48.61709" lon="1.89713">
        <ele>134</ele>
        <time>2020-07-21T14:06:40Z</time>
      </trkpt>
      <trkpt lat="48.61709" lon="1.89683">
        <ele>134</ele>
        <time>2020-07-21T14:06:54Z</time>
      </trkpt>
      <trkpt lat="48.61702" lon="1.89641">
        <ele>134</ele>
        <time>2020-07-21T14:07:13Z</time>
      </trkpt>
      <trkpt lat="48.61696" lon="1.89601">
        <ele>134</ele>
        <time>2020-07-21T14:07:33Z</time>
      </trkpt>
      <trkpt lat="48.61695" lon="1.89554">
        <ele>133</ele>
        <time>2020-07-21T14:07:51Z</time>
      </trkpt>
      <trkpt lat="48.61696" lon="1.89516">
        <ele>133</ele>
        <time>2020-07-21T14:08:09Z</time>
      </trkpt>
      <trkpt lat="48.61697" lon="1.89473">
        <ele>131</ele>
        <time>2020-07-21T14:08:29Z</time>
      </trkpt>
      <trkpt lat="48.61688" lon="1.89438">
        <ele>131</ele>
        <time>2020-07-21T14:08:46Z</time>
      </trkpt>
      <trkpt lat="48.61675" lon="1.89429">
        <ele>130</ele>
        <time>2020-07-21T14:09:02Z</time>
      </trkpt>
      <trkpt lat="48.61674" lon="1.8943">
        <ele>130</ele>
        <time>2020-07-21T14:09:03Z</time>
      </trkpt>
      <trkpt lat="48.61673" lon="1.89432">
        <ele>130</ele>
        <time>2020-07-21T14:09:04Z</time>
      </trkpt>
      <trkpt lat="48.61672" lon="1.89433">
        <ele>130</ele>
        <time>2020-07-21T14:09:05Z</time>
      </trkpt>
      <trkpt lat="48.61671" lon="1.89434">
        <ele>130</ele>
        <time>2020-07-21T14:09:06Z</time>
      </trkpt>
      <trkpt lat="48.61651" lon="1.8945">
        <ele>129</ele>
        <time>2020-07-21T14:09:27Z</time>
      </trkpt>
      <trkpt lat="48.61626" lon="1.89478">
        <ele>129</ele>
        <time>2020-07-21T14:09:45Z</time>
      </trkpt>
      <trkpt lat="48.61615" lon="1.89497">
        <ele>129</ele>
        <time>2020-07-21T14:09:59Z</time>
      </trkpt>
      <trkpt lat="48.61604" lon="1.89513">
        <ele>130</ele>
        <time>2020-07-21T14:10:13Z</time>
      </trkpt>
      <trkpt lat="48.6157" lon="1.89534">
        <ele>130</ele>
        <time>2020-07-21T14:10:35Z</time>
      </trkpt>
      <trkpt lat="48.61546" lon="1.89559">
        <ele>130</ele>
        <time>2020-07-21T14:10:56Z</time>
      </trkpt>
      <trkpt lat="48.61541" lon="1.89574">
        <ele>130</ele>
        <time>2020-07-21T14:11:01Z</time>
      </trkpt>
      <trkpt lat="48.61529" lon="1.89609">
        <ele>130</ele>
        <time>2020-07-21T14:11:18Z</time>
      </trkpt>
      <trkpt lat="48.61515" lon="1.89639">
        <ele>129</ele>
        <time>2020-07-21T14:11:37Z</time>
      </trkpt>
      <trkpt lat="48.61494" lon="1.89666">
        <ele>128</ele>
        <time>2020-07-21T14:11:54Z</time>
      </trkpt>
      <trkpt lat="48.61475" lon="1.89696">
        <ele>129</ele>
        <time>2020-07-21T14:12:15Z</time>
      </trkpt>
      <trkpt lat="48.61456" lon="1.89723">
        <ele>129</ele>
        <time>2020-07-21T14:12:32Z</time>
      </trkpt>
      <trkpt lat="48.61435" lon="1.8975">
        <ele>129</ele>
        <time>2020-07-21T14:12:52Z</time>
      </trkpt>
      <trkpt lat="48.61421" lon="1.89785">
        <ele>129</ele>
        <time>2020-07-21T14:13:09Z</time>
      </trkpt>
      <trkpt lat="48.61407" lon="1.89809">
        <ele>130</ele>
        <time>2020-07-21T14:13:23Z</time>
      </trkpt>
      <trkpt lat="48.61394" lon="1.89831">
        <ele>131</ele>
        <time>2020-07-21T14:13:38Z</time>
      </trkpt>
      <trkpt lat="48.61379" lon="1.89856">
        <ele>132</ele>
        <time>2020-07-21T14:13:53Z</time>
      </trkpt>
      <trkpt lat="48.61364" lon="1.89882">
        <ele>132</ele>
        <time>2020-07-21T14:14:12Z</time>
      </trkpt>
      <trkpt lat="48.61347" lon="1.89919">
        <ele>133</ele>
        <time>2020-07-21T14:14:31Z</time>
      </trkpt>
      <trkpt lat="48.61329" lon="1.89945">
        <ele>133</ele>
        <time>2020-07-21T14:14:48Z</time>
      </trkpt>
      <trkpt lat="48.61309" lon="1.89972">
        <ele>132</ele>
        <time>2020-07-21T14:15:08Z</time>
      </trkpt>
      <trkpt lat="48.61303" lon="1.89985">
        <ele>132</ele>
        <time>2020-07-21T14:15:22Z</time>
      </trkpt>
      <trkpt lat="48.61285" lon="1.90012">
        <ele>131</ele>
        <time>2020-07-21T14:15:40Z</time>
      </trkpt>
      <trkpt lat="48.61267" lon="1.90045">
        <ele>130</ele>
        <time>2020-07-21T14:15:57Z</time>
      </trkpt>
      <trkpt lat="48.61251" lon="1.90061">
        <ele>130</ele>
        <time>2020-07-21T14:16:13Z</time>
      </trkpt>
      <trkpt lat="48.61251" lon="1.90059">
        <ele>130</ele>
        <time>2020-07-21T14:16:19Z</time>
      </trkpt>
      <trkpt lat="48.61253" lon="1.90026">
        <ele>131</ele>
        <time>2020-07-21T14:16:39Z</time>
      </trkpt>
      <trkpt lat="48.61258" lon="1.90021">
        <ele>132</ele>
        <time>2020-07-21T14:16:59Z</time>
      </trkpt>
      <trkpt lat="48.6125" lon="1.90017">
        <ele>132</ele>
        <time>2020-07-21T14:17:28Z</time>
      </trkpt>
      <trkpt lat="48.61243" lon="1.90015">
        <ele>132</ele>
        <time>2020-07-21T14:17:50Z</time>
      </trkpt>
      <trkpt lat="48.6124" lon="1.90016">
        <ele>132</ele>
        <time>2020-07-21T14:18:08Z</time>
      </trkpt>
      <trkpt lat="48.6124" lon="1.90019">
        <ele>132</ele>
        <time>2020-07-21T14:18:20Z</time>
      </trkpt>
      <trkpt lat="48.61244" lon="1.90021">
        <ele>132</ele>
        <time>2020-07-21T14:18:21Z</time>
      </trkpt>
      <trkpt lat="48.61247" lon="1.90049">
        <ele>131</ele>
        <time>2020-07-21T14:18:35Z</time>
      </trkpt>
      <trkpt lat="48.61244" lon="1.9007">
        <ele>130</ele>
        <time>2020-07-21T14:18:46Z</time>
      </trkpt>
      <trkpt lat="48.61235" lon="1.90102">
        <ele>129</ele>
        <time>2020-07-21T14:19:02Z</time>
      </trkpt>
      <trkpt lat="48.61217" lon="1.90133">
        <ele>129</ele>
        <time>2020-07-21T14:19:20Z</time>
      </trkpt>
      <trkpt lat="48.61203" lon="1.90157">
        <ele>129</ele>
        <time>2020-07-21T14:19:38Z</time>
      </trkpt>
      <trkpt lat="48.61188" lon="1.90186">
        <ele>131</ele>
        <time>2020-07-21T14:19:55Z</time>
      </trkpt>
      <trkpt lat="48.61169" lon="1.90221">
        <ele>131</ele>
        <time>2020-07-21T14:20:13Z</time>
      </trkpt>
      <trkpt lat="48.61158" lon="1.90248">
        <ele>131</ele>
        <time>2020-07-21T14:20:28Z</time>
      </trkpt>
      <trkpt lat="48.61146" lon="1.90272">
        <ele>131</ele>
        <time>2020-07-21T14:20:44Z</time>
      </trkpt>
      <trkpt lat="48.61135" lon="1.90308">
        <ele>131</ele>
        <time>2020-07-21T14:21:00Z</time>
      </trkpt>
      <trkpt lat="48.61133" lon="1.90354">
        <ele>130</ele>
        <time>2020-07-21T14:21:21Z</time>
      </trkpt>
      <trkpt lat="48.61127" lon="1.90393">
        <ele>130</ele>
        <time>2020-07-21T14:21:38Z</time>
      </trkpt>
      <trkpt lat="48.61127" lon="1.90423">
        <ele>129</ele>
        <time>2020-07-21T14:21:53Z</time>
      </trkpt>
      <trkpt lat="48.61129" lon="1.90427">
        <ele>129</ele>
        <time>2020-07-21T14:22:02Z</time>
      </trkpt>
      <trkpt lat="48.61148" lon="1.90455">
        <ele>129</ele>
        <time>2020-07-21T14:22:22Z</time>
      </trkpt>
      <trkpt lat="48.61161" lon="1.90484">
        <ele>128</ele>
        <time>2020-07-21T14:22:39Z</time>
      </trkpt>
      <trkpt lat="48.61164" lon="1.90496">
        <ele>128</ele>
        <time>2020-07-21T14:22:56Z</time>
      </trkpt>
      <trkpt lat="48.61179" lon="1.90531">
        <ele>129</ele>
        <time>2020-07-21T14:23:13Z</time>
      </trkpt>
      <trkpt lat="48.61194" lon="1.90561">
        <ele>129</ele>
        <time>2020-07-21T14:23:31Z</time>
      </trkpt>
      <trkpt lat="48.61211" lon="1.90591">
        <ele>129</ele>
        <time>2020-07-21T14:23:48Z</time>
      </trkpt>
      <trkpt lat="48.61229" lon="1.90625">
        <ele>129</ele>
        <time>2020-07-21T14:24:07Z</time>
      </trkpt>
      <trkpt lat="48.61249" lon="1.90653">
        <ele>130</ele>
        <time>2020-07-21T14:24:27Z</time>
      </trkpt>
      <trkpt lat="48.61265" lon="1.90677">
        <ele>130</ele>
        <time>2020-07-21T14:24:46Z</time>
      </trkpt>
      <trkpt lat="48.61286" lon="1.90722">
        <ele>130</ele>
        <time>2020-07-21T14:25:11Z</time>
      </trkpt>
      <trkpt lat="48.6129" lon="1.90733">
        <ele>130</ele>
        <time>2020-07-21T14:25:24Z</time>
      </trkpt>
      <trkpt lat="48.61289" lon="1.90739">
        <ele>130</ele>
        <time>2020-07-21T14:25:28Z</time>
      </trkpt>
      <trkpt lat="48.61293" lon="1.90748">
        <ele>130</ele>
        <time>2020-07-21T14:25:34Z</time>
      </trkpt>
      <trkpt lat="48.61302" lon="1.90758">
        <ele>131</ele>
        <time>2020-07-21T14:25:47Z</time>
      </trkpt>
      <trkpt lat="48.61304" lon="1.90758">
        <ele>131</ele>
        <time>2020-07-21T14:26:20Z</time>
      </trkpt>
      <trkpt lat="48.613" lon="1.90766">
        <ele>131</ele>
        <time>2020-07-21T14:26:53Z</time>
      </trkpt>
      <trkpt lat="48.613" lon="1.90765">
        <ele>131</ele>
        <time>2020-07-21T14:27:05Z</time>
      </trkpt>
      <trkpt lat="48.61294" lon="1.90772">
        <ele>131</ele>
        <time>2020-07-21T14:27:20Z</time>
      </trkpt>
      <trkpt lat="48.61284" lon="1.90789">
        <ele>132</ele>
        <time>2020-07-21T14:27:35Z</time>
      </trkpt>
      <trkpt lat="48.61282" lon="1.90792">
        <ele>132</ele>
        <time>2020-07-21T14:27:37Z</time>
      </trkpt>
      <trkpt lat="48.61268" lon="1.90821">
        <ele>132</ele>
        <time>2020-07-21T14:27:53Z</time>
      </trkpt>
      <trkpt lat="48.61265" lon="1.90833">
        <ele>132</ele>
        <time>2020-07-21T14:28:07Z</time>
      </trkpt>
      <trkpt lat="48.61258" lon="1.90859">
        <ele>134</ele>
        <time>2020-07-21T14:28:20Z</time>
      </trkpt>
      <trkpt lat="48.61252" lon="1.90885">
        <ele>134</ele>
        <time>2020-07-21T14:28:33Z</time>
      </trkpt>
      <trkpt lat="48.61251" lon="1.90888">
        <ele>134</ele>
        <time>2020-07-21T14:28:35Z</time>
      </trkpt>
      <trkpt lat="48.6125" lon="1.90897">
        <ele>133</ele>
        <time>2020-07-21T14:28:39Z</time>
      </trkpt>
      <trkpt lat="48.61242" lon="1.90924">
        <ele>134</ele>
        <time>2020-07-21T14:28:51Z</time>
      </trkpt>
      <trkpt lat="48.61236" lon="1.90932">
        <ele>133</ele>
        <time>2020-07-21T14:28:56Z</time>
      </trkpt>
      <trkpt lat="48.61226" lon="1.90955">
        <ele>133</ele>
        <time>2020-07-21T14:29:13Z</time>
      </trkpt>
      <trkpt lat="48.61212" lon="1.90982">
        <ele>133</ele>
        <time>2020-07-21T14:29:32Z</time>
      </trkpt>
      <trkpt lat="48.61195" lon="1.90997">
        <ele>133</ele>
        <time>2020-07-21T14:29:42Z</time>
      </trkpt>
      <trkpt lat="48.61182" lon="1.91011">
        <ele>132</ele>
        <time>2020-07-21T14:29:54Z</time>
      </trkpt>
      <trkpt lat="48.61152" lon="1.91026">
        <ele>130</ele>
        <time>2020-07-21T14:30:14Z</time>
      </trkpt>
      <trkpt lat="48.61128" lon="1.91038">
        <ele>129</ele>
        <time>2020-07-21T14:30:30Z</time>
      </trkpt>
      <trkpt lat="48.61101" lon="1.9105">
        <ele>128</ele>
        <time>2020-07-21T14:30:46Z</time>
      </trkpt>
      <trkpt lat="48.61077" lon="1.91064">
        <ele>127</ele>
        <time>2020-07-21T14:31:07Z</time>
      </trkpt>
      <trkpt lat="48.61049" lon="1.91076">
        <ele>127</ele>
        <time>2020-07-21T14:31:26Z</time>
      </trkpt>
      <trkpt lat="48.61047" lon="1.91096">
        <ele>127</ele>
        <time>2020-07-21T14:31:41Z</time>
      </trkpt>
      <trkpt lat="48.61033" lon="1.91125">
        <ele>127</ele>
        <time>2020-07-21T14:31:59Z</time>
      </trkpt>
      <trkpt lat="48.61019" lon="1.91129">
        <ele>127</ele>
        <time>2020-07-21T14:32:11Z</time>
      </trkpt>
      <trkpt lat="48.61016" lon="1.9113">
        <ele>127</ele>
        <time>2020-07-21T14:32:26Z</time>
      </trkpt>
      <trkpt lat="48.61013" lon="1.91134">
        <ele>127</ele>
        <time>2020-07-21T14:32:35Z</time>
      </trkpt>
    </trkseg>
  </trk>
</gpx>